METAR AND TAF INFORMATION
METAR FOR CYPD
ADDS - METARS form results

(0718 UTC 19 December 2018)
Data provider http://aviationweather.gov/metar/data/
 
METAR text: CYPD 190700Z AUTO 30017G31KT 2 1/2SM -SN OVC020 M02/M05 A2937 RMK VIS VRB 1 1/4-3 SLP951
Conditions at: CYPD (PORT HAWKESBURY , NS, CA) observed 0700 UTC 19 December 2018
Temperature: -2.0°C (28°F)
Dewpoint: -5.0°C (23°F) [RH = 80%]
Pressure (altimeter): 29.37 inches Hg (994.7 mb)
[Sea-level pressure:  995.1 mb]
Winds: from the WNW (300 degrees) at 20 MPH (17 knots; 8.7 m/s)
gusting to 36 MPH (31 knots; 15.9 m/s)
Visibility: 2.50 miles (4.02 km)
Ceiling: 2000 feet AGL
Clouds: overcast cloud deck at 2000 feet AGL
Weather: -SN  (light snow)

METAR text: CYPD 190642Z AUTO 30017G28KT 5SM -SN OVC018 M02/M05 A2935 RMK SLP947
Conditions at: CYPD (PORT HAWKESBURY , NS, CA) observed 0642 UTC 19 December 2018
Temperature: -2.0°C (28°F)
Dewpoint: -5.0°C (23°F) [RH = 80%]
Pressure (altimeter): 29.35 inches Hg (994.0 mb)
[Sea-level pressure:  994.7 mb]
Winds: from the WNW (300 degrees) at 20 MPH (17 knots; 8.7 m/s)
gusting to 32 MPH (28 knots; 14.4 m/s)
Visibility: 5 miles ( 8 km)
Ceiling: 1800 feet AGL
Clouds: overcast cloud deck at 1800 feet AGL
Weather: -SN  (light snow)

METAR text: CYPD 190641Z AUTO 30016G28KT 6SM -SN OVC018 M02/M04 A2936 RMK PRESRR SLP948
Conditions at: CYPD (PORT HAWKESBURY , NS, CA) observed 0641 UTC 19 December 2018
Temperature: -2.0°C (28°F)
Dewpoint: -4.0°C (25°F) [RH = 86%]
Pressure (altimeter): 29.36 inches Hg (994.3 mb)
[Sea-level pressure:  994.8 mb]
Winds: from the WNW (300 degrees) at 18 MPH (16 knots; 8.2 m/s)
gusting to 32 MPH (28 knots; 14.4 m/s)
Visibility: 6 miles (10 km)
Ceiling: 1800 feet AGL
Clouds: overcast cloud deck at 1800 feet AGL
Weather: -SN  (light snow)

 AIRPORT MAP

Esri Leaflet Quickstart
 RUNWAY INFORMATION
Runway 11 Runway length 5000 ft Runway width 150 ft
Runway elevation 334 ft Runway displaced threshold 0 ft Runway heading 90
Runway 29 Runway length 5000 ft Runway width 150 ft
Runway elevation 375 ft Runway displaced threshold 0 ft Runway heading 270

 AIRPORT FREQUENCIES
Type RDO Name HALIFAX RD Frequency 126.7 MHZ
Type UNIC Name ATF/UNICOM Frequency 122.8 MHZ

 AIRPORT NEAR NAVIGATION AIDS
Type NDB Name Port Hawkesbury Frequency 229 KHZ



Powered by Virtual Airlines Manager [v2.6.2]